createdAt,value
2018-06-20T00:00:14.389Z,5.67
2018-06-20T00:02:44.764Z,6.13
2018-06-20T00:05:15.143Z,5.87
2018-06-20T00:07:45.531Z,5.67
2018-06-20T00:10:15.910Z,6.17
2018-06-20T00:12:46.287Z,6.53
2018-06-20T00:15:16.621Z,6.70
2018-06-20T00:17:47.651Z,5.97
2018-06-20T00:20:18.029Z,6.10
2018-06-20T00:22:48.429Z,6.67
2018-06-20T00:25:18.798Z,6.83
2018-06-20T00:27:49.182Z,6.30
2018-06-20T00:30:20.355Z,6.27
2018-06-20T00:32:50.729Z,6.13
2018-06-20T00:35:21.776Z,6.63
2018-06-20T00:37:52.177Z,6.80
2018-06-20T00:40:22.566Z,7.70
2018-06-20T00:42:52.936Z,7.40
2018-06-20T00:45:23.340Z,6.50
2018-06-20T00:47:57.801Z,6.77
2018-06-20T00:50:28.174Z,6.93
2018-06-20T00:52:58.585Z,6.67
2018-06-20T00:55:28.965Z,6.67
2018-06-20T00:57:59.345Z,7.57
2018-06-20T01:00:29.741Z,7.47
2018-06-20T01:03:00.097Z,7.53
2018-06-20T01:05:30.662Z,7.07
2018-06-20T01:08:21.458Z,7.63
2018-06-20T01:10:53.877Z,7.80
2018-06-20T01:13:25.038Z,7.93
2018-06-20T01:15:55.425Z,7.77
2018-06-20T01:18:25.805Z,7.43
2018-06-20T01:20:56.189Z,7.30
2018-06-20T01:23:26.583Z,7.40
2018-06-20T01:25:56.965Z,7.67
2018-06-20T01:28:27.342Z,8.07
2018-06-20T01:30:59.794Z,7.43
2018-06-20T01:33:30.178Z,7.93
2018-06-20T01:36:00.561Z,7.30
2018-06-20T01:38:37.118Z,7.37
2018-06-20T01:41:07.494Z,8.80
2018-06-20T01:43:37.870Z,8.97
2018-06-20T01:46:08.286Z,7.87
2018-06-20T01:48:38.659Z,7.40
2018-06-20T01:51:09.040Z,7.67
2018-06-20T01:53:39.452Z,8.10
2018-06-20T01:56:10.601Z,7.50
2018-06-20T01:58:41.750Z,7.90
2018-06-20T02:01:12.156Z,7.77
2018-06-20T02:03:43.304Z,8.37
2018-06-20T02:06:14.456Z,7.53
2018-06-20T02:08:45.627Z,8.67
2018-06-20T02:11:16.006Z,8.97
2018-06-20T02:13:46.395Z,9.17
2018-06-20T02:16:16.796Z,8.30
2018-06-20T02:18:47.183Z,7.03
2018-06-20T02:21:17.751Z,7.57
2018-06-20T02:23:48.149Z,7.63
2018-06-20T02:26:19.306Z,7.40
2018-06-20T02:28:50.447Z,7.87
2018-06-20T02:31:21.612Z,7.70
2018-06-20T02:33:52.000Z,7.83
2018-06-20T02:36:22.317Z,7.77
2018-06-20T02:38:52.720Z,7.70
2018-06-20T02:41:42.466Z,7.60
2018-06-20T02:44:12.881Z,8.50
2018-06-20T02:46:44.025Z,7.97
2018-06-20T02:49:15.108Z,8.00
2018-06-20T02:51:45.512Z,7.97
2018-06-20T02:54:15.882Z,7.43
2018-06-20T02:56:46.196Z,7.37
2018-06-20T02:59:35.976Z,6.97
2018-06-20T03:02:10.455Z,6.53
2018-06-20T03:04:40.835Z,7.63
2018-06-20T03:07:11.242Z,7.50
2018-06-20T03:09:41.627Z,6.63
2018-06-20T03:12:12.003Z,7.07
2018-06-20T03:14:42.406Z,6.90
2018-06-20T03:17:12.790Z,7.00
2018-06-20T03:19:43.180Z,6.90
2018-06-20T03:22:13.587Z,6.67
2018-06-20T03:24:43.964Z,7.80
2018-06-20T03:27:15.373Z,7.30
2018-06-20T03:29:45.764Z,7.57
2018-06-20T03:32:16.905Z,7.93
2018-06-20T03:34:47.217Z,7.90
2018-06-20T03:37:17.618Z,7.13
2018-06-20T03:39:48.014Z,8.07
2018-06-20T03:42:18.391Z,7.77
2018-06-20T03:44:48.741Z,7.80
2018-06-20T03:47:19.305Z,7.97
2018-06-20T03:52:37.411Z,6.73
2018-06-20T03:55:08.449Z,7.80
2018-06-20T03:57:38.832Z,7.57
2018-06-20T04:00:09.249Z,7.97
2018-06-20T04:02:39.626Z,8.10
2018-06-20T04:05:10.001Z,7.83
2018-06-20T04:07:40.399Z,7.93
2018-06-20T04:10:11.542Z,7.97
2018-06-20T04:12:42.128Z,7.83
2018-06-20T04:15:12.456Z,7.10
2018-06-20T04:17:48.910Z,7.60
2018-06-20T04:20:19.306Z,8.40
2018-06-20T04:22:49.623Z,7.67
2018-06-20T04:25:20.948Z,7.93
2018-06-20T04:27:51.347Z,8.40
2018-06-20T04:30:21.722Z,7.30
2018-06-20T04:32:52.874Z,7.97
2018-06-20T04:35:23.224Z,7.83
2018-06-20T04:37:53.599Z,7.47
2018-06-20T04:40:23.985Z,8.03
2018-06-20T04:42:57.441Z,8.50
2018-06-20T04:45:28.585Z,8.90
2018-06-20T04:47:59.726Z,8.50
2018-06-20T04:50:30.887Z,8.70
2018-06-20T04:53:01.257Z,8.67
2018-06-20T04:55:50.966Z,8.80
2018-06-20T04:58:21.331Z,9.57
2018-06-20T05:00:51.707Z,9.37
2018-06-20T05:03:22.114Z,8.97
2018-06-20T05:06:13.903Z,9.03
2018-06-20T05:08:44.301Z,9.40
2018-06-20T05:11:15.446Z,7.73
2018-06-20T05:13:45.825Z,7.53
2018-06-20T05:16:18.268Z,7.50
2018-06-20T05:18:50.438Z,7.27
2018-06-20T05:21:21.569Z,6.27
2018-06-20T05:23:52.740Z,6.23
2018-06-20T05:26:23.122Z,5.93
2018-06-20T05:28:53.494Z,6.00
2018-06-20T05:31:24.593Z,5.47
2018-06-20T05:33:54.980Z,5.70
2018-06-20T05:36:25.361Z,5.47
2018-06-20T05:38:56.535Z,5.27
2018-06-20T05:41:26.909Z,5.43
2018-06-20T05:43:57.287Z,5.57
2018-06-20T05:46:27.905Z,5.13
2018-06-20T05:48:58.292Z,5.40
2018-06-20T05:51:28.672Z,4.93
2018-06-20T05:53:59.090Z,5.60
2018-06-20T05:56:30.233Z,4.60
2018-06-20T05:59:00.602Z,5.03
2018-06-20T06:01:33.057Z,5.07
2018-06-20T06:04:03.426Z,5.80
2018-06-20T06:06:33.809Z,5.30
2018-06-20T06:09:04.210Z,5.63
2018-06-20T06:11:34.540Z,5.67
2018-06-20T06:14:04.912Z,5.10
2018-06-20T06:16:35.312Z,5.03
2018-06-20T06:19:05.703Z,6.20
2018-06-20T06:21:36.851Z,4.50
2018-06-20T06:24:07.249Z,4.30
2018-06-20T06:26:37.628Z,4.90
2018-06-20T06:29:07.995Z,4.73
2018-06-20T06:31:38.399Z,4.80
2018-06-20T06:34:08.787Z,4.40
2018-06-20T06:36:39.951Z,4.40
2018-06-20T06:39:10.377Z,4.40
2018-06-20T06:41:40.758Z,4.40
2018-06-20T06:44:11.138Z,3.70
2018-06-20T06:46:41.549Z,4.13
2018-06-20T06:49:11.931Z,3.90
2018-06-20T06:51:42.499Z,3.70
2018-06-20T06:54:12.907Z,3.70
2018-06-20T06:56:43.289Z,4.27
2018-06-20T06:59:13.852Z,3.57
2018-06-20T07:01:46.301Z,4.13
2018-06-20T07:04:19.756Z,3.53
2018-06-20T07:06:50.137Z,3.50
2018-06-20T07:09:20.546Z,3.50
2018-06-20T07:11:50.805Z,3.33
2018-06-20T07:14:21.192Z,2.90
2018-06-20T07:17:10.972Z,3.77
2018-06-20T07:19:43.589Z,4.27
2018-06-20T07:22:13.959Z,3.53
2018-06-20T07:24:44.363Z,3.40
2018-06-20T07:27:15.500Z,3.93
2018-06-20T07:29:46.695Z,3.47
2018-06-20T07:32:17.801Z,3.83
2018-06-20T07:34:48.952Z,3.70
2018-06-20T07:37:19.272Z,3.60
2018-06-20T07:39:50.442Z,3.80
2018-06-20T07:42:20.758Z,3.53
2018-06-20T07:44:51.140Z,3.83
2018-06-20T07:47:21.549Z,3.37
2018-06-20T07:49:52.109Z,3.60
2018-06-20T07:52:23.244Z,3.53
2018-06-20T07:54:55.703Z,3.10
2018-06-20T07:57:26.082Z,3.10
2018-06-20T08:03:26.548Z,3.10
2018-06-20T08:06:03.328Z,3.23
2018-06-20T08:08:39.346Z,3.63
2018-06-20T08:11:27.684Z,3.40
2018-06-20T08:14:03.778Z,3.27
2018-06-20T08:16:34.159Z,3.47
2018-06-20T08:19:06.970Z,3.73
2018-06-20T08:21:38.146Z,3.07
2018-06-20T08:24:08.715Z,3.23
2018-06-20T08:26:39.102Z,3.00
2018-06-20T08:29:09.489Z,3.07
2018-06-20T08:31:39.874Z,3.43
2018-06-20T08:34:10.255Z,3.43
2018-06-20T08:36:40.667Z,3.60
2018-06-20T08:39:11.039Z,3.30
2018-06-20T08:41:43.466Z,3.30
2018-06-20T08:44:14.638Z,3.80
2018-06-20T08:46:45.019Z,3.33
2018-06-20T08:49:15.406Z,4.03
2018-06-20T08:51:45.743Z,3.40
2018-06-20T08:54:20.211Z,4.23
2018-06-20T08:56:51.229Z,4.13
2018-06-20T08:59:21.640Z,3.77
2018-06-20T09:01:54.070Z,4.07
2018-06-20T09:04:25.182Z,3.80
2018-06-20T09:07:04.545Z,3.70
2018-06-20T09:09:34.924Z,3.60
2018-06-20T09:12:17.274Z,3.60
2018-06-20T09:14:47.656Z,3.83
2018-06-20T09:17:24.191Z,3.97
2018-06-20T09:19:54.504Z,3.83
2018-06-20T09:22:25.664Z,3.97
2018-06-20T09:24:55.997Z,3.60
2018-06-20T09:27:26.380Z,3.57
2018-06-20T09:29:56.773Z,3.17
2018-06-20T09:32:33.297Z,3.63
2018-06-20T09:35:03.676Z,3.83
2018-06-20T09:37:34.061Z,3.93
2018-06-20T09:40:04.450Z,3.40
2018-06-20T09:42:34.826Z,3.70
2018-06-20T09:45:05.208Z,3.57
2018-06-20T09:47:35.617Z,3.60
2018-06-20T09:50:05.982Z,3.67
2018-06-20T09:52:36.544Z,3.77
2018-06-20T09:55:10.024Z,3.70
2018-06-20T09:57:40.389Z,3.70
2018-06-20T10:00:10.775Z,3.13
2018-06-20T10:02:43.806Z,3.30
2018-06-20T10:05:16.929Z,3.23
2018-06-20T10:07:48.379Z,3.50
2018-06-20T10:10:19.551Z,3.33
2018-06-20T10:12:49.917Z,3.80
2018-06-20T10:15:20.300Z,3.50
2018-06-20T10:17:50.709Z,3.63
2018-06-20T10:20:21.902Z,3.60
2018-06-20T10:22:52.976Z,3.70
2018-06-20T10:25:23.378Z,3.63
2018-06-20T10:27:54.777Z,3.60
2018-06-20T10:30:25.154Z,3.30
2018-06-20T10:32:55.557Z,3.33
2018-06-20T10:35:25.932Z,3.60
2018-06-20T10:37:56.255Z,3.50
2018-06-20T10:40:26.850Z,3.27
2018-06-20T10:43:00.313Z,3.40
2018-06-20T10:45:30.702Z,3.70
2018-06-20T10:48:01.167Z,3.37
2018-06-20T10:50:31.544Z,3.40
2018-06-20T10:53:01.923Z,4.03
2018-06-20T10:55:32.273Z,3.30
2018-06-20T10:58:20.550Z,3.40
2018-06-20T11:01:05.937Z,3.57
2018-06-20T11:06:42.305Z,3.53
2018-06-20T11:09:34.532Z,3.30
2018-06-20T11:12:16.767Z,3.70
2018-06-20T11:14:47.348Z,3.70
2018-06-20T11:17:17.716Z,3.67
2018-06-20T11:19:48.138Z,3.50
2018-06-20T11:22:18.526Z,3.43
2018-06-20T11:24:49.565Z,3.37
2018-06-20T11:27:20.668Z,3.30
2018-06-20T11:29:51.048Z,3.70
2018-06-20T11:32:21.432Z,3.07
2018-06-20T11:34:51.838Z,3.27
2018-06-20T11:37:22.216Z,3.30
2018-06-20T11:39:52.586Z,3.33
2018-06-20T11:42:22.990Z,3.23
2018-06-20T11:44:53.367Z,3.50
2018-06-20T11:47:32.459Z,3.60
2018-06-20T11:50:02.834Z,3.60
2018-06-20T11:52:33.279Z,3.60
2018-06-20T11:55:10.774Z,3.40
2018-06-20T11:57:41.159Z,3.60
2018-06-20T12:00:14.168Z,3.13
2018-06-20T12:02:57.533Z,3.23
2018-06-20T12:05:35.038Z,2.93
2018-06-20T12:08:17.239Z,3.33
2018-06-20T12:10:50.214Z,3.10
2018-06-20T12:13:29.549Z,3.23
2018-06-20T12:16:11.778Z,3.40
2018-06-20T12:19:18.484Z,2.83
2018-06-20T12:22:06.860Z,3.17
2018-06-20T12:24:54.981Z,3.23
2018-06-20T12:27:43.110Z,3.30
2018-06-20T12:30:31.312Z,3.40
2018-06-20T12:33:19.490Z,3.07
2018-06-20T12:36:07.687Z,3.60
2018-06-20T12:38:55.843Z,3.67
2018-06-20T12:41:26.219Z,3.63
2018-06-20T12:44:14.776Z,3.07
2018-06-20T12:46:45.178Z,3.60
2018-06-20T12:49:15.561Z,3.70
2018-06-20T12:51:45.929Z,3.60
2018-06-20T12:54:16.331Z,3.50
2018-06-20T12:56:46.716Z,3.33
2018-06-20T12:59:17.087Z,3.40
2018-06-20T13:01:50.562Z,3.57
2018-06-20T13:04:20.941Z,3.47
2018-06-20T13:06:51.519Z,3.60
2018-06-20T13:09:21.920Z,3.23
2018-06-20T13:11:52.302Z,3.87
2018-06-20T13:14:22.681Z,3.50
2018-06-20T13:16:53.862Z,3.80
2018-06-20T13:19:24.244Z,3.60
2018-06-20T13:21:54.569Z,3.60
2018-06-20T13:24:25.729Z,3.57
2018-06-20T13:26:56.483Z,3.63
2018-06-20T13:29:29.502Z,3.47
2018-06-20T13:32:00.928Z,3.10
2018-06-20T13:34:33.917Z,3.77
2018-06-20T13:37:10.007Z,3.80
2018-06-20T13:39:45.897Z,3.47
2018-06-20T13:42:37.409Z,3.50
2018-06-20T13:45:10.473Z,3.53
2018-06-20T13:47:40.852Z,3.87
2018-06-20T13:50:11.257Z,3.67
2018-06-20T13:52:41.630Z,3.97
2018-06-20T13:55:12.035Z,3.40
2018-06-20T13:57:42.441Z,3.40
2018-06-20T14:00:14.612Z,3.43
2018-06-20T14:02:48.744Z,3.63
2018-06-20T14:05:19.116Z,3.70
2018-06-20T14:07:49.443Z,3.40
2018-06-20T14:10:21.887Z,3.67
2018-06-20T14:12:55.072Z,3.47
2018-06-20T14:15:25.398Z,3.60
2018-06-20T14:17:55.805Z,3.50
2018-06-20T14:20:26.955Z,3.23
2018-06-20T14:22:58.785Z,3.60
2018-06-20T14:25:31.625Z,3.30
2018-06-20T14:28:03.987Z,3.77
2018-06-20T14:30:36.775Z,3.23
2018-06-20T14:36:12.939Z,3.67
2018-06-20T14:38:49.190Z,3.90
2018-06-20T14:41:19.350Z,3.23
2018-06-20T14:43:52.422Z,3.57
2018-06-20T14:46:22.837Z,3.50
2018-06-20T14:48:53.221Z,3.40
2018-06-20T14:51:23.600Z,3.60
2018-06-20T14:53:54.001Z,3.70
2018-06-20T14:56:24.322Z,3.67
2018-06-20T14:58:55.462Z,3.80
2018-06-20T15:01:25.863Z,3.57
2018-06-20T15:03:56.239Z,3.53
2018-06-20T15:06:26.618Z,3.67
2018-06-20T15:08:59.758Z,3.30
2018-06-20T15:11:30.138Z,3.33
2018-06-20T15:14:00.522Z,3.70
2018-06-20T15:16:30.923Z,3.90
2018-06-20T15:19:02.063Z,3.40
2018-06-20T15:21:33.211Z,3.60
2018-06-20T15:24:03.621Z,3.50
2018-06-20T15:26:33.998Z,3.40
2018-06-20T15:29:23.113Z,3.63
2018-06-20T15:31:59.011Z,3.57
2018-06-20T15:34:48.756Z,3.20
2018-06-20T15:37:37.128Z,3.33
2018-06-20T15:40:10.084Z,3.73
2018-06-20T15:42:40.461Z,3.60
2018-06-20T15:45:14.416Z,3.60
2018-06-20T15:47:44.817Z,3.60
2018-06-20T15:50:15.188Z,3.63
2018-06-20T15:52:45.575Z,3.90
2018-06-20T15:55:15.968Z,3.70
2018-06-20T15:57:46.353Z,3.40
2018-06-20T16:00:16.946Z,3.73
2018-06-20T16:02:48.063Z,3.50
2018-06-20T16:05:18.373Z,3.07
2018-06-20T16:07:49.514Z,3.40
2018-06-20T16:10:19.912Z,3.07
2018-06-20T16:12:50.290Z,3.30
2018-06-20T16:15:20.667Z,3.97
2018-06-20T16:17:51.058Z,3.53
2018-06-20T16:20:21.437Z,3.47
2018-06-20T16:23:10.899Z,3.20
2018-06-20T16:25:47.227Z,3.40
2018-06-20T16:28:36.884Z,3.60
2018-06-20T16:31:07.265Z,3.03
2018-06-20T16:33:37.641Z,3.57
2018-06-20T16:36:07.973Z,3.50
2018-06-20T16:38:39.067Z,3.30
2018-06-20T16:43:53.680Z,3.20
2018-06-20T16:46:24.066Z,3.50
2018-06-20T16:48:54.495Z,3.47
2018-06-20T16:51:30.528Z,4.25
2018-06-20T16:54:06.029Z,3.53
2018-06-20T16:56:37.777Z,3.40
2018-06-20T16:59:14.763Z,3.60
2018-06-20T17:01:45.928Z,3.90
2018-06-20T17:04:16.302Z,3.80
2018-06-20T17:06:49.119Z,3.53
2018-06-20T17:09:20.276Z,3.50
2018-06-20T17:11:54.481Z,3.50
2018-06-20T17:14:25.623Z,3.40
2018-06-20T17:17:08.218Z,3.47
2018-06-20T17:19:47.033Z,3.10
2018-06-20T17:22:38.138Z,3.03
2018-06-20T17:25:11.245Z,3.50
2018-06-20T17:27:41.609Z,3.73
2018-06-20T17:30:12.019Z,3.13
2018-06-20T17:32:45.197Z,3.27
2018-06-20T17:35:21.834Z,3.50
2018-06-20T17:37:55.343Z,3.43
2018-06-20T17:40:26.413Z,3.50
2018-06-20T17:42:57.561Z,3.37
2018-06-20T17:45:28.689Z,3.50
2018-06-20T17:47:59.063Z,3.43
2018-06-20T17:50:29.455Z,3.47
2018-06-20T17:53:00.606Z,3.57
2018-06-20T17:55:34.480Z,3.50
2018-06-20T17:58:05.037Z,3.53
2018-06-20T18:00:38.829Z,3.30
2018-06-20T18:03:09.205Z,2.97
2018-06-20T18:05:44.564Z,3.80
2018-06-20T18:08:23.696Z,3.60
2018-06-20T18:10:56.762Z,3.83
2018-06-20T18:13:27.323Z,3.30
2018-06-20T18:16:12.572Z,3.50
2018-06-20T18:18:42.890Z,3.67
2018-06-20T18:21:15.751Z,3.37
2018-06-20T18:23:46.381Z,3.40
2018-06-20T18:26:16.759Z,3.70
2018-06-20T18:28:54.315Z,3.67
2018-06-20T18:31:27.141Z,3.80
2018-06-20T18:33:57.461Z,3.67
2018-06-20T18:39:15.501Z,3.97
2018-06-20T18:41:45.895Z,3.23
2018-06-20T18:44:17.035Z,4.03
2018-06-20T18:46:52.899Z,3.93
2018-06-20T18:49:24.220Z,4.07
2018-06-20T18:51:54.596Z,4.00
2018-06-20T18:54:24.994Z,4.00
2018-06-20T18:56:56.127Z,4.20
2018-06-20T18:59:28.996Z,3.73
2018-06-20T19:02:05.274Z,3.93
2018-06-20T19:04:53.711Z,4.00
2018-06-20T19:07:29.829Z,4.10
2018-06-20T19:10:00.206Z,4.17
2018-06-20T19:12:30.585Z,4.10
2018-06-20T19:15:01.020Z,3.90
2018-06-20T19:17:31.366Z,3.90
2018-06-20T19:20:10.318Z,4.00
2018-06-20T19:22:40.695Z,4.07
2018-06-20T19:25:11.070Z,4.00
2018-06-20T19:27:42.431Z,4.13
2018-06-20T19:30:16.151Z,4.00
2018-06-20T19:32:52.199Z,4.17
2018-06-20T19:35:22.508Z,3.70
2018-06-20T19:37:52.882Z,4.33
2018-06-20T19:40:23.477Z,4.27
2018-06-20T19:42:53.858Z,3.97
2018-06-20T19:45:24.232Z,4.17
2018-06-20T19:47:58.537Z,4.10
2018-06-20T19:50:28.911Z,3.90
2018-06-20T19:52:59.290Z,4.13
2018-06-20T19:55:32.186Z,4.37
2018-06-20T19:58:03.331Z,4.30
2018-06-20T20:00:34.414Z,4.13
2018-06-20T20:03:04.754Z,3.93
2018-06-20T20:05:39.834Z,4.17
2018-06-20T20:08:16.123Z,4.40
2018-06-20T20:10:46.511Z,3.77
2018-06-20T20:13:16.896Z,3.93
2018-06-20T20:15:47.317Z,4.17
2018-06-20T20:18:17.674Z,4.10
2018-06-20T20:20:48.114Z,3.80
2018-06-20T20:23:18.869Z,4.50
2018-06-20T20:25:50.203Z,4.00
2018-06-20T20:28:20.578Z,4.30
2018-06-20T20:30:51.007Z,4.37
2018-06-20T20:36:11.643Z,4.50
2018-06-20T20:38:44.062Z,4.30
2018-06-20T20:41:17.303Z,3.77
2018-06-20T20:43:48.707Z,4.30
2018-06-20T20:46:19.083Z,4.17
2018-06-20T20:48:53.572Z,4.07
2018-06-20T20:51:23.944Z,4.10
2018-06-20T20:54:01.804Z,4.17
2018-06-20T20:56:32.180Z,4.00
2018-06-20T20:59:02.568Z,4.27
2018-06-20T21:01:32.947Z,4.30
2018-06-20T21:04:03.407Z,4.33
2018-06-20T21:06:33.727Z,4.17
2018-06-20T21:09:05.154Z,4.00
2018-06-20T21:11:35.601Z,4.10
2018-06-20T21:14:05.912Z,4.20
2018-06-20T21:16:36.357Z,4.13
2018-06-20T21:19:06.689Z,4.30
2018-06-20T21:21:40.651Z,3.80
2018-06-20T21:24:11.065Z,4.10
2018-06-20T21:26:48.060Z,4.40
2018-06-20T21:29:18.402Z,4.43
2018-06-20T21:31:48.799Z,4.73
2018-06-20T21:34:26.360Z,4.10
2018-06-20T21:36:56.732Z,4.40
2018-06-20T21:39:27.290Z,4.33
2018-06-20T21:41:57.693Z,4.37
2018-06-20T21:44:28.073Z,4.47
2018-06-20T21:46:58.451Z,4.20
2018-06-20T21:49:30.774Z,4.67
2018-06-20T21:52:01.153Z,4.40
2018-06-20T21:54:31.524Z,4.17
2018-06-20T21:57:01.870Z,3.87
2018-06-20T21:59:32.245Z,4.83
2018-06-20T22:02:02.619Z,4.37
2018-06-20T22:04:33.027Z,4.73
2018-06-20T22:07:03.407Z,4.33
2018-06-20T22:09:33.884Z,4.07
2018-06-20T22:12:04.183Z,4.30
2018-06-20T22:14:35.320Z,5.03
2018-06-20T22:17:05.714Z,4.30
2018-06-20T22:19:39.279Z,4.50
2018-06-20T22:22:09.566Z,4.30
2018-06-20T22:24:39.945Z,4.73
2018-06-20T22:27:13.403Z,4.30
2018-06-20T22:29:44.550Z,4.23
2018-06-20T22:32:15.691Z,4.53
2018-06-20T22:34:46.853Z,3.73
2018-06-20T22:37:17.230Z,4.33
2018-06-20T22:39:47.604Z,4.83
2018-06-20T22:42:18.769Z,4.17
2018-06-20T22:44:49.149Z,4.70
2018-06-20T22:47:19.524Z,4.83
2018-06-20T22:49:50.618Z,4.77
2018-06-20T22:52:21.661Z,4.90
2018-06-20T22:54:52.034Z,4.80
2018-06-20T22:57:22.438Z,4.83
2018-06-20T22:59:52.810Z,4.67
2018-06-20T23:02:30.510Z,4.80
2018-06-20T23:05:01.912Z,5.37
2018-06-20T23:07:33.234Z,4.90
2018-06-20T23:10:03.633Z,5.20
2018-06-20T23:12:35.043Z,5.33
2018-06-20T23:15:05.416Z,5.23
2018-06-20T23:17:35.794Z,5.30
2018-06-20T23:20:06.178Z,5.70
2018-06-20T23:22:36.493Z,5.43
2018-06-20T23:25:06.899Z,5.70
2018-06-20T23:27:37.277Z,6.03
2018-06-20T23:30:08.417Z,6.37
2018-06-20T23:32:38.819Z,5.63
2018-06-20T23:35:09.375Z,6.00
2018-06-20T23:37:39.748Z,5.83
2018-06-20T23:40:10.091Z,6.67
2018-06-20T23:42:42.523Z,6.47
2018-06-20T23:45:12.924Z,6.33
2018-06-20T23:47:43.342Z,6.00
2018-06-20T23:50:13.711Z,5.90
2018-06-20T23:52:45.106Z,5.57
2018-06-20T23:55:15.517Z,5.63
2018-06-20T23:57:50.003Z,5.93
